Time;durP1;ratioP1;P1;durP2;ratioP2;P2;SDS_P1;SDS_P2;PMS_P1;PMS_P2;Temp;Humidity;BMP_temperature;BMP_pressure;BME280_temperature;BME280_humidity;BME280_pressure;Samples;Min_cycle;Max_cycle;Signal;HPM_P1;HPM_P2
2022/11/17 00:01:54;;;;;;;13.90;4.83;;;11.40;99.90;;;;;;5010763;28;20381;-73
2022/11/17 00:04:20;;;;;;;11.20;5.40;;;11.40;99.90;;;;;;5011332;28;20508;-72
2022/11/17 00:06:45;;;;;;;8.63;4.72;;;11.30;99.90;;;;;;5011736;28;20397;-72
2022/11/17 00:09:16;;;;;;;9.80;5.40;;;11.40;99.90;;;;;;5011115;28;20416;-73
2022/11/17 00:14:31;;;;;;;11.07;5.30;;;11.30;99.90;;;;;;5013173;28;20380;-72
2022/11/17 00:16:57;;;;;;;14.20;4.70;;;11.40;99.90;;;;;;5014565;28;20897;-74
2022/11/17 00:22:07;;;;;;;10.85;5.00;;;11.50;99.90;;;;;;5022866;28;20743;-72
2022/11/17 00:24:32;;;;;;;10.43;4.30;;;11.50;99.80;;;;;;5019331;28;20396;-72
2022/11/17 00:27:01;;;;;;;9.75;5.40;;;11.50;98.20;;;;;;5015261;28;20391;-72
2022/11/17 00:29:27;;;;;;;13.00;6.35;;;11.40;99.90;;;;;;5014156;28;20482;-73
2022/11/17 00:34:37;;;;;;;10.07;4.80;;;11.50;97.90;;;;;;5013734;28;20435;-71
2022/11/17 00:37:03;;;;;;;9.10;5.00;;;11.50;98.10;;;;;;5013929;28;20388;-72
2022/11/17 00:39:28;;;;;;;12.88;5.22;;;11.50;98.50;;;;;;5013577;28;20472;-72
2022/11/17 00:41:54;;;;;;;9.60;4.10;;;11.50;99.30;;;;;;5013717;28;20867;-73
2022/11/17 00:44:20;;;;;;;9.60;5.10;;;11.50;99.90;;;;;;5013721;28;20396;-73
2022/11/17 00:46:46;;;;;;;7.03;4.20;;;11.50;99.90;;;;;;5013807;28;20404;-72
2022/11/17 00:49:11;;;;;;;8.43;3.78;;;11.50;99.90;;;;;;5012125;28;20504;-72
2022/11/17 00:51:37;;;;;;;8.13;4.65;;;11.40;99.90;;;;;;5011879;28;20468;-73
2022/11/17 00:54:04;;;;;;;10.70;6.03;;;11.40;99.90;;;;;;5013382;28;20430;-74
2022/11/17 00:56:30;;;;;;;12.07;5.03;;;11.40;99.90;;;;;;5013503;28;20388;-72
2022/11/17 00:58:56;;;;;;;6.65;3.70;;;11.30;99.90;;;;;;5013550;28;20389;-73
2022/11/17 01:01:22;;;;;;;9.35;5.57;;;11.30;99.90;;;;;;5013210;28;20865;-73
2022/11/17 01:03:48;;;;;;;15.70;5.90;;;11.20;99.90;;;;;;5013333;28;20483;-72
2022/11/17 01:06:16;;;;;;;8.15;4.10;;;11.30;99.90;;;;;;5013518;28;20793;-73
2022/11/17 01:08:42;;;;;;;9.13;4.20;;;11.20;99.90;;;;;;5013248;28;20416;-72
2022/11/17 01:11:13;;;;;;;10.57;4.30;;;11.20;99.90;;;;;;5013188;28;20389;-72
2022/11/17 01:13:40;;;;;;;10.20;4.15;;;11.10;99.90;;;;;;5013412;28;20392;-72
2022/11/17 01:16:12;;;;;;;10.98;4.30;;;11.20;99.90;;;;;;5013208;28;20395;-74
2022/11/17 01:18:39;;;;;;;8.67;3.43;;;11.10;99.90;;;;;;5013077;28;20391;-73
2022/11/17 01:21:10;;;;;;;10.50;4.07;;;11.20;99.90;;;;;;5012930;28;20385;-73
2022/11/17 01:23:40;;;;;;;9.98;4.35;;;11.10;99.90;;;;;;5012981;28;20389;-73
2022/11/17 01:26:09;;;;;;;8.43;3.53;;;11.20;99.90;;;;;;5013089;28;20773;-72
2022/11/17 01:28:35;;;;;;;11.32;6.85;;;11.20;99.90;;;;;;5012583;28;20401;-73
2022/11/17 01:31:09;;;;;;;8.38;3.45;;;11.20;99.90;;;;;;5012946;28;20459;-73
2022/11/17 01:33:35;;;;;;;9.15;4.50;;;11.20;99.90;;;;;;5013039;28;20443;-73
2022/11/17 01:36:26;;;;;;;5.85;3.60;;;11.10;99.90;;;;;;5013074;28;20384;-73
2022/11/17 01:38:51;;;;;;;9.65;4.10;;;11.10;99.90;;;;;;5010911;28;20467;-73
2022/11/17 01:41:22;;;;;;;6.45;3.20;;;11.10;99.90;;;;;;5011393;28;20458;-73
2022/11/17 01:43:51;;;;;;;5.97;3.45;;;11.10;99.90;;;;;;5013398;28;20882;-72
2022/11/17 01:46:31;;;;;;;7.53;3.80;;;11.10;99.90;;;;;;5011443;28;20846;-72
2022/11/17 01:49:08;;;;;;;8.88;3.70;;;11.10;99.90;;;;;;5012623;28;20436;-73
2022/11/17 01:51:36;;;;;;;8.48;4.70;;;11.20;99.90;;;;;;5012098;28;20886;-72
2022/11/17 01:54:02;;;;;;;7.78;3.40;;;11.20;99.90;;;;;;5012485;28;20480;-72
2022/11/17 01:56:34;;;;;;;5.77;3.40;;;11.20;99.90;;;;;;5012432;28;20549;-72
2022/11/17 01:59:07;;;;;;;6.72;3.13;;;11.20;99.90;;;;;;5012477;28;20388;-73
2022/11/17 02:01:33;;;;;;;8.18;3.67;;;11.10;99.90;;;;;;5012215;28;20389;-72
2022/11/17 02:03:59;;;;;;;5.47;2.83;;;11.10;99.90;;;;;;5011178;28;20396;-73
2022/11/17 02:06:34;;;;;;;9.50;3.95;;;11.10;99.90;;;;;;5012961;28;20870;-73
2022/11/17 02:09:02;;;;;;;6.43;2.97;;;11.10;99.90;;;;;;5014127;28;20413;-73
2022/11/17 02:11:34;;;;;;;5.10;3.15;;;11.00;99.90;;;;;;5013301;28;20377;-74
2022/11/17 02:14:02;;;;;;;9.98;3.53;;;11.10;99.90;;;;;;5012351;28;20385;-72
2022/11/17 02:16:28;;;;;;;8.93;3.67;;;11.10;99.90;;;;;;5013583;28;20388;-73
2022/11/17 02:18:53;;;;;;;7.60;4.23;;;11.10;99.90;;;;;;5012532;28;21003;-73
2022/11/17 02:21:56;;;;;;;6.90;3.30;;;11.10;99.90;;;;;;5012426;28;20896;-72
2022/11/17 02:24:42;;;;;;;6.18;3.10;;;11.10;99.90;;;;;;5012631;28;20385;-73
2022/11/17 02:27:48;;;;;;;6.40;3.80;;;11.10;99.90;;;;;;5011312;28;20481;-73
2022/11/17 02:30:19;;;;;;;9.68;3.88;;;11.10;99.90;;;;;;5012800;28;20570;-73
2022/11/17 02:33:05;;;;;;;9.25;3.22;;;11.20;99.90;;;;;;5011808;28;20527;-73
2022/11/17 02:36:00;;;;;;;5.55;3.20;;;11.10;99.90;;;;;;5011885;28;20377;-71
2022/11/17 02:38:41;;;;;;;7.50;2.90;;;11.10;99.90;;;;;;5011905;28;20384;-72
2022/11/17 02:41:21;;;;;;;6.45;3.88;;;11.10;99.90;;;;;;5011789;28;20404;-74
2022/11/17 02:44:21;;;;;;;9.85;3.42;;;11.10;99.90;;;;;;5010668;28;20389;-73
2022/11/17 02:46:53;;;;;;;13.35;5.00;;;11.20;99.90;;;;;;5012297;28;20393;-73
2022/11/17 02:49:34;;;;;;;8.82;2.95;;;11.20;99.90;;;;;;5012086;28;20435;-73
2022/11/17 02:52:01;;;;;;;5.27;3.53;;;11.30;99.90;;;;;;5010365;28;20759;-72
2022/11/17 02:54:29;;;;;;;5.30;2.70;;;11.30;99.90;;;;;;5012530;28;20412;-74
2022/11/17 02:56:55;;;;;;;9.17;3.57;;;11.20;99.90;;;;;;5013233;28;20388;-74
2022/11/17 02:59:33;;;;;;;4.57;2.30;;;11.20;99.90;;;;;;5012540;28;20389;-73
2022/11/17 03:02:20;;;;;;;4.00;2.90;;;11.20;99.90;;;;;;5011586;28;20401;-73
2022/11/17 03:04:46;;;;;;;8.05;3.60;;;11.10;99.90;;;;;;5011886;28;20393;-72
2022/11/17 03:07:42;;;;;;;10.67;3.67;;;11.10;99.90;;;;;;5012762;28;20420;-73
2022/11/17 03:10:19;;;;;;;6.32;3.15;;;11.10;99.90;;;;;;5015862;28;20409;-73
2022/11/17 03:12:58;;;;;;;5.57;2.45;;;11.10;99.90;;;;;;5016046;28;20396;-72
2022/11/17 03:15:40;;;;;;;8.03;3.43;;;11.10;99.90;;;;;;5016245;28;20385;-72
2022/11/17 03:18:29;;;;;;;5.85;2.90;;;11.10;99.90;;;;;;5015323;28;20377;-72
2022/11/17 03:21:27;;;;;;;9.48;2.70;;;11.10;99.90;;;;;;5011754;28;20467;-72
2022/11/17 03:24:12;;;;;;;8.20;3.22;;;11.10;99.90;;;;;;5010781;28;20381;-72
2022/11/17 03:26:43;;;;;;;5.88;3.13;;;11.10;99.90;;;;;;5011288;28;20384;-73
2022/11/17 03:29:13;;;;;;;6.20;2.58;;;11.10;99.90;;;;;;5011310;28;20412;-74
2022/11/17 03:31:42;;;;;;;6.47;3.30;;;11.10;99.90;;;;;;5010916;28;20523;-72
2022/11/17 03:34:11;;;;;;;5.95;3.10;;;11.10;99.90;;;;;;5011104;28;20428;-72
2022/11/17 03:36:45;;;;;;;7.25;3.40;;;11.00;99.90;;;;;;5011480;28;20384;-73
2022/11/17 03:39:17;;;;;;;7.90;3.55;;;11.00;99.90;;;;;;5012478;28;20877;-73
2022/11/17 03:41:47;;;;;;;5.72;2.88;;;11.10;99.90;;;;;;5011553;28;20412;-73
2022/11/17 03:44:16;;;;;;;7.32;2.90;;;11.10;99.90;;;;;;5010897;28;20388;-73
2022/11/17 03:46:42;;;;;;;6.97;3.00;;;11.10;99.90;;;;;;5009960;28;20487;-72
2022/11/17 03:49:20;;;;;;;5.25;3.10;;;11.10;99.90;;;;;;5010832;28;20415;-74
2022/11/17 03:51:45;;;;;;;5.13;2.67;;;11.00;99.90;;;;;;5011349;28;20752;-73
2022/11/17 03:54:13;;;;;;;5.43;2.73;;;11.00;99.90;;;;;;5014928;28;20389;-71
2022/11/17 03:56:44;;;;;;;3.40;2.25;;;11.10;99.90;;;;;;5014884;28;20381;-72
2022/11/17 03:59:28;;;;;;;4.82;2.10;;;11.00;99.90;;;;;;5014655;28;20404;-72
2022/11/17 04:01:54;;;;;;;4.10;2.45;;;11.00;99.90;;;;;;5014689;28;20475;-73
2022/11/17 04:04:21;;;;;;;6.67;2.73;;;11.00;99.90;;;;;;5014766;28;20476;-74
2022/11/17 04:06:48;;;;;;;6.15;3.33;;;10.90;99.90;;;;;;5013426;28;20389;-73
2022/11/17 04:09:14;;;;;;;4.68;2.20;;;10.90;99.90;;;;;;5014726;28;20414;-72
2022/11/17 04:17:08;;;;;;;3.97;2.75;;;11.00;99.90;;;;;;5016244;28;20396;-71
2022/11/17 04:19:33;;;;;;;2.40;2.20;;;10.90;99.90;;;;;;5016415;28;20948;-74
2022/11/17 04:21:59;;;;;;;4.45;2.40;;;10.80;99.90;;;;;;5014366;28;20424;-74
2022/11/17 04:24:24;;;;;;;5.50;2.30;;;10.80;99.90;;;;;;5015447;28;20398;-72
2022/11/17 04:29:34;;;;;;;4.70;2.00;;;10.80;99.90;;;;;;5014479;28;20947;-74
2022/11/17 04:32:00;;;;;;;2.58;1.85;;;10.80;99.90;;;;;;5012973;28;20459;-73
2022/11/17 04:34:25;;;;;;;3.80;2.50;;;10.90;99.90;;;;;;5014818;28;20767;-74
2022/11/17 04:36:51;;;;;;;2.78;1.85;;;11.00;99.90;;;;;;5014974;28;20462;-74
2022/11/17 04:39:16;;;;;;;2.53;2.10;;;10.90;99.90;;;;;;5013325;28;20430;-73
2022/11/17 04:42:02;;;;;;;3.05;2.10;;;10.80;99.90;;;;;;5014201;28;20400;-73
2022/11/17 04:44:29;;;;;;;3.55;2.10;;;10.80;99.90;;;;;;5016415;28;20419;-73
2022/11/17 04:46:55;;;;;;;4.78;1.90;;;10.80;99.90;;;;;;5015792;28;20384;-72
2022/11/17 04:49:22;;;;;;;4.50;2.20;;;10.80;99.90;;;;;;5013835;28;20415;-72
2022/11/17 04:51:49;;;;;;;4.68;2.33;;;10.70;99.90;;;;;;5013933;28;20388;-74
2022/11/17 04:54:17;;;;;;;5.25;2.00;;;10.60;99.90;;;;;;5013053;28;20850;-76
2022/11/17 04:56:44;;;;;;;6.23;2.70;;;10.70;99.90;;;;;;5012828;28;20400;-74
2022/11/17 04:59:09;;;;;;;4.20;2.67;;;10.60;99.90;;;;;;5018391;28;20469;-73
2022/11/17 05:01:35;;;;;;;5.63;2.60;;;10.70;99.90;;;;;;5018764;28;20384;-72
2022/11/17 05:04:04;;;;;;;3.72;2.25;;;10.60;99.90;;;;;;5016671;28;20455;-73
2022/11/17 05:06:36;;;;;;;2.83;2.35;;;10.60;99.90;;;;;;5016347;28;20389;-73
2022/11/17 05:09:14;;;;;;;5.20;2.30;;;10.60;99.90;;;;;;5014985;28;20483;-76
2022/11/17 05:14:25;;;;;;;3.00;1.90;;;10.90;99.90;;;;;;5014022;28;20426;-73
2022/11/17 05:17:04;;;;;;;6.50;2.17;;;11.00;99.90;;;;;;5013697;28;20397;-72
2022/11/17 05:19:50;;;;;;;5.40;2.17;;;11.00;99.90;;;;;;5013590;28;20396;-72
2022/11/17 05:25:05;;;;;;;5.88;2.50;;;11.10;99.90;;;;;;5013694;28;20388;-73
2022/11/17 05:27:32;;;;;;;3.22;1.83;;;11.00;99.90;;;;;;5013075;28;20396;-73
2022/11/17 05:29:58;;;;;;;4.18;3.10;;;11.00;99.90;;;;;;5013192;28;20409;-72
2022/11/17 05:32:23;;;;;;;6.75;2.78;;;11.00;99.90;;;;;;5012957;28;20937;-73
2022/11/17 05:34:49;;;;;;;6.65;2.70;;;11.00;99.90;;;;;;5013174;28;20408;-74
2022/11/17 05:37:14;;;;;;;6.40;2.33;;;11.10;99.90;;;;;;5013682;28;20439;-74
2022/11/17 05:39:40;;;;;;;3.20;2.10;;;11.00;99.90;;;;;;5013015;28;20471;-72
2022/11/17 05:42:05;;;;;;;3.40;2.20;;;11.00;99.90;;;;;;5013041;28;20385;-73
2022/11/17 05:44:31;;;;;;;4.63;2.90;;;11.00;99.90;;;;;;5013111;28;20713;-74
2022/11/17 05:46:56;;;;;;;5.80;2.55;;;11.10;99.90;;;;;;5013248;28;20870;-73
2022/11/17 05:49:22;;;;;;;3.55;2.17;;;11.00;99.90;;;;;;4995602;28;20409;-74
2022/11/17 05:51:48;;;;;;;7.15;2.70;;;11.00;99.90;;;;;;5012942;28;20411;-76
2022/11/17 05:54:14;;;;;;;6.05;2.53;;;10.90;99.90;;;;;;5013726;28;20381;-74
2022/11/17 05:56:42;;;;;;;4.95;2.38;;;11.00;99.90;;;;;;5013531;28;20393;-74
2022/11/17 05:59:29;;;;;;;3.97;2.28;;;10.90;99.90;;;;;;5012260;28;20882;-74
2022/11/17 06:02:04;;;;;;;6.07;2.35;;;10.90;99.90;;;;;;5016908;28;20830;-73
2022/11/17 06:04:30;;;;;;;6.78;2.25;;;10.90;99.90;;;;;;5015832;28;20389;-73
2022/11/17 06:06:59;;;;;;;5.30;2.50;;;10.90;99.90;;;;;;5016443;28;20389;-74
2022/11/17 06:09:31;;;;;;;5.65;2.40;;;10.90;99.90;;;;;;5018765;28;20416;-74
2022/11/17 06:11:57;;;;;;;4.35;2.30;;;10.90;99.90;;;;;;5016623;28;20392;-72
2022/11/17 06:14:22;;;;;;;6.47;2.50;;;11.00;99.90;;;;;;5017504;28;20380;-75
2022/11/17 06:16:51;;;;;;;4.23;2.10;;;11.10;99.90;;;;;;5017254;28;20512;-72
2022/11/17 06:19:23;;;;;;;5.93;2.30;;;11.10;99.90;;;;;;5013528;28;20404;-72
2022/11/17 06:21:50;;;;;;;3.70;1.98;;;11.10;99.90;;;;;;5010574;28;20389;-72
2022/11/17 06:24:16;;;;;;;4.65;2.35;;;11.00;99.90;;;;;;5012385;28;20443;-72
2022/11/17 06:26:42;;;;;;;5.72;2.30;;;11.00;99.90;;;;;;5011919;28;20377;-74
2022/11/17 06:29:09;;;;;;;6.78;2.40;;;11.00;99.90;;;;;;5012126;28;20400;-72
2022/11/17 06:31:37;;;;;;;9.73;2.92;;;11.00;99.90;;;;;;5012078;28;20470;-72
2022/11/17 06:34:03;;;;;;;4.38;2.60;;;11.00;99.90;;;;;;5012067;28;20385;-73
2022/11/17 06:36:29;;;;;;;5.15;2.33;;;10.90;99.90;;;;;;5012147;28;20806;-72
2022/11/17 06:38:55;;;;;;;8.20;2.90;;;11.00;99.90;;;;;;5011921;28;20384;-73
2022/11/17 06:41:21;;;;;;;8.03;2.50;;;11.00;99.90;;;;;;5013028;28;20459;-73
2022/11/17 06:43:47;;;;;;;5.70;2.30;;;11.00;99.90;;;;;;5019851;28;20419;-74
2022/11/17 06:46:12;;;;;;;5.00;2.47;;;11.10;99.90;;;;;;5016529;28;20395;-73
2022/11/17 06:48:38;;;;;;;5.80;2.50;;;11.10;99.90;;;;;;5015489;28;20427;-74
2022/11/17 06:51:04;;;;;;;6.10;2.37;;;11.10;99.90;;;;;;5012589;28;20388;-73
2022/11/17 06:53:32;;;;;;;7.75;2.55;;;11.00;99.90;;;;;;5010731;28;20389;-75
2022/11/17 06:56:17;;;;;;;6.03;2.63;;;11.10;99.90;;;;;;5011871;28;20387;-75
2022/11/17 06:58:44;;;;;;;3.63;2.33;;;11.10;99.90;;;;;;5011679;28;20385;-75
2022/11/17 07:01:12;;;;;;;5.20;2.55;;;11.00;99.90;;;;;;5011778;28;20438;-74
2022/11/17 07:03:39;;;;;;;6.83;3.10;;;11.00;99.90;;;;;;5012115;28;20381;-75
2022/11/17 07:06:07;;;;;;;4.90;3.00;;;11.00;99.90;;;;;;5012750;28;20384;-73
2022/11/17 07:08:33;;;;;;;6.78;2.90;;;11.00;99.90;;;;;;5011831;28;20885;-73
2022/11/17 07:11:09;;;;;;;9.55;2.95;;;11.00;99.90;;;;;;5011334;28;20432;-75
2022/11/17 07:13:35;;;;;;;7.00;3.10;;;11.10;99.90;;;;;;5011939;28;20391;-74
2022/11/17 07:16:05;;;;;;;4.85;3.03;;;11.20;99.90;;;;;;5012916;28;20389;-73
2022/11/17 07:18:31;;;;;;;10.05;3.05;;;11.30;99.90;;;;;;5012995;28;20389;-75
2022/11/17 07:21:01;;;;;;;9.77;2.70;;;11.20;99.90;;;;;;5012417;28;20476;-74
2022/11/17 07:23:27;;;;;;;5.68;3.40;;;11.20;99.90;;;;;;5011565;28;20821;-75
2022/11/17 07:25:52;;;;;;;4.73;2.50;;;11.20;99.90;;;;;;5011388;28;20384;-72
2022/11/17 07:28:18;;;;;;;5.60;2.83;;;11.20;99.90;;;;;;5011320;28;20952;-75
2022/11/17 07:30:43;;;;;;;9.17;3.60;;;11.30;99.90;;;;;;5011404;28;20436;-74
2022/11/17 07:33:09;;;;;;;6.93;2.80;;;11.30;99.90;;;;;;5011341;28;20413;-74
2022/11/17 07:35:35;;;;;;;7.60;3.40;;;11.20;99.90;;;;;;5011818;28;20408;-71
2022/11/17 07:38:01;;;;;;;10.55;3.10;;;11.30;99.90;;;;;;5010488;28;20389;-73
2022/11/17 07:40:28;;;;;;;10.23;2.70;;;11.20;99.90;;;;;;5011771;28;20412;-73
2022/11/17 07:42:54;;;;;;;6.70;3.10;;;11.30;99.90;;;;;;5011151;28;20408;-74
2022/11/17 07:45:21;;;;;;;10.57;3.20;;;11.40;99.90;;;;;;5011416;28;20401;-72
2022/11/17 07:47:59;;;;;;;8.50;3.00;;;11.30;99.90;;;;;;5012478;28;20539;-72
2022/11/17 07:50:25;;;;;;;6.93;3.13;;;11.20;99.90;;;;;;5015279;28;20441;-73
2022/11/17 07:52:53;;;;;;;12.63;3.83;;;11.20;99.90;;;;;;5014266;28;20804;-73
2022/11/17 07:55:19;;;;;;;7.93;3.10;;;11.20;99.90;;;;;;5013913;28;20373;-73
2022/11/17 07:57:45;;;;;;;7.55;2.38;;;11.40;99.90;;;;;;5012669;28;20823;-74
2022/11/17 08:00:13;;;;;;;5.00;2.38;;;11.30;99.90;;;;;;5011038;28;20424;-73
2022/11/17 08:02:39;;;;;;;3.10;2.10;;;11.20;99.90;;;;;;5011318;28;20393;-73
2022/11/17 08:05:05;;;;;;;4.30;2.13;;;11.30;99.90;;;;;;5012399;28;20448;-74
2022/11/17 08:07:31;;;;;;;3.92;1.70;;;11.40;99.90;;;;;;5012062;28;20393;-75
2022/11/17 08:09:59;;;;;;;5.70;2.20;;;11.30;99.90;;;;;;5012802;28;20483;-75
2022/11/17 08:12:25;;;;;;;4.72;2.10;;;11.30;99.90;;;;;;5011740;28;20432;-75
2022/11/17 08:14:50;;;;;;;3.88;1.30;;;11.40;99.90;;;;;;5010526;28;20419;-75
2022/11/17 08:17:16;;;;;;;4.77;1.70;;;11.50;92.00;;;;;;5009464;28;20396;-75
2022/11/17 08:19:42;;;;;;;3.03;1.60;;;11.60;88.50;;;;;;5011865;28;20455;-74
2022/11/17 08:22:07;;;;;;;4.30;1.53;;;11.60;89.30;;;;;;5010453;28;20455;-75
2022/11/17 08:24:33;;;;;;;2.80;1.40;;;11.60;89.50;;;;;;5011054;28;20400;-74
2022/11/17 08:26:58;;;;;;;3.30;1.60;;;11.60;85.70;;;;;;5011140;28;20727;-74
2022/11/17 08:29:24;;;;;;;4.95;1.60;;;11.60;90.80;;;;;;5009618;28;20495;-75
2022/11/17 08:31:50;;;;;;;3.50;1.58;;;11.60;89.30;;;;;;4989712;28;20390;-75
2022/11/17 08:34:15;;;;;;;4.78;1.70;;;11.60;88.40;;;;;;5007116;28;20411;-75
2022/11/17 08:36:41;;;;;;;6.95;3.20;;;11.70;89.30;;;;;;5011598;28;20392;-74
2022/11/17 08:39:07;;;;;;;4.72;1.77;;;11.80;85.00;;;;;;5011687;28;20878;-74
2022/11/17 08:41:32;;;;;;;7.03;2.70;;;11.80;83.00;;;;;;5029277;22;20443;-73
2022/11/17 08:43:58;;;;;;;6.30;2.10;;;11.80;85.90;;;;;;5012938;28;20388;-75
2022/11/17 08:46:26;;;;;;;8.25;3.08;;;11.80;85.50;;;;;;5014018;28;20400;-73
2022/11/17 08:48:52;;;;;;;6.57;2.50;;;11.90;84.90;;;;;;5013803;28;20407;-74
2022/11/17 08:51:17;;;;;;;6.87;3.30;;;11.90;85.20;;;;;;5012996;28;20967;-73
2022/11/17 08:53:43;;;;;;;3.28;2.05;;;11.90;84.50;;;;;;5014525;28;20389;-74
2022/11/17 08:56:10;;;;;;;6.82;3.33;;;11.90;85.80;;;;;;5014380;28;20730;-74
2022/11/17 08:58:41;;;;;;;5.35;2.55;;;12.00;83.70;;;;;;5013787;28;20396;-73
2022/11/17 09:01:09;;;;;;;5.63;2.67;;;12.10;81.00;;;;;;5027847;28;20783;-72
2022/11/17 09:03:34;;;;;;;6.53;2.90;;;12.20;80.00;;;;;;5015861;28;20435;-71
2022/11/17 09:06:01;;;;;;;7.78;2.90;;;12.30;80.80;;;;;;5015016;28;20381;-72
2022/11/17 09:08:27;;;;;;;4.80;2.00;;;12.30;79.60;;;;;;5020387;28;20408;-73
2022/11/17 09:10:52;;;;;;;8.25;2.30;;;12.30;76.00;;;;;;5012406;28;20420;-73
2022/11/17 09:13:18;;;;;;;3.85;2.45;;;12.30;78.40;;;;;;5012835;28;20901;-72
2022/11/17 09:15:44;;;;;;;4.63;2.00;;;12.40;74.70;;;;;;5014233;28;20393;-74
2022/11/17 09:18:09;;;;;;;6.10;2.50;;;12.50;71.40;;;;;;5027101;28;20395;-73
2022/11/17 09:20:35;;;;;;;7.47;3.00;;;12.50;69.60;;;;;;5019251;28;20411;-73
2022/11/17 09:23:01;;;;;;;5.70;2.00;;;12.50;71.90;;;;;;5014926;28;20408;-72
2022/11/17 09:25:29;;;;;;;7.90;3.70;;;12.50;69.60;;;;;;5015195;28;20400;-73
2022/11/17 09:27:55;;;;;;;8.50;2.80;;;12.60;68.60;;;;;;5016161;28;20381;-73
2022/11/17 09:30:21;;;;;;;4.90;2.90;;;12.70;69.80;;;;;;5016416;28;20523;-75
2022/11/17 09:32:48;;;;;;;5.65;2.50;;;12.80;65.90;;;;;;5015909;28;20403;-73
2022/11/17 09:35:14;;;;;;;4.35;2.38;;;12.70;65.10;;;;;;5014409;28;20392;-74
2022/11/17 09:37:40;;;;;;;3.40;1.83;;;12.90;61.60;;;;;;5014073;28;20385;-72
2022/11/17 09:40:09;;;;;;;7.63;2.30;;;12.80;60.70;;;;;;5015241;28;20389;-75
2022/11/17 09:42:39;;;;;;;4.93;1.80;;;12.90;61.00;;;;;;5013861;28;20397;-74
2022/11/17 09:45:12;;;;;;;3.15;1.60;;;12.80;60.60;;;;;;5013094;28;20455;-74
2022/11/17 09:48:01;;;;;;;5.83;2.00;;;12.90;58.00;;;;;;5015249;28;20506;-74
2022/11/17 09:50:35;;;;;;;8.82;3.03;;;13.10;57.20;;;;;;5013370;28;20830;-74
2022/11/17 09:53:18;;;;;;;6.55;2.40;;;13.10;57.80;;;;;;5015177;28;20388;-75
2022/11/17 09:55:57;;;;;;;6.05;1.88;;;13.20;53.50;;;;;;5016398;28;20405;-74
2022/11/17 09:58:47;;;;;;;7.65;1.70;;;13.20;54.60;;;;;;5015611;28;20404;-73
2022/11/17 10:01:16;;;;;;;2.60;1.23;;;13.30;54.80;;;;;;5016337;28;20880;-74
2022/11/17 10:03:43;;;;;;;5.90;1.80;;;13.50;49.30;;;;;;5018936;28;20385;-74
2022/11/17 10:06:21;;;;;;;6.47;2.20;;;13.50;48.40;;;;;;5014775;28;20442;-74
2022/11/17 10:08:57;;;;;;;3.90;1.50;;;13.50;46.30;;;;;;5011742;28;20436;-73
2022/11/17 10:11:31;;;;;;;3.50;1.30;;;13.50;45.10;;;;;;5012988;28;20797;-74
2022/11/17 10:14:14;;;;;;;3.25;1.30;;;13.50;43.70;;;;;;5019188;28;20411;-74
2022/11/17 10:17:00;;;;;;;2.90;1.60;;;13.60;43.30;;;;;;5017907;28;20419;-74
2022/11/17 10:19:29;;;;;;;3.50;1.43;;;13.60;43.00;;;;;;5016482;28;20388;-74
2022/11/17 10:22:01;;;;;;;4.68;1.75;;;13.70;39.90;;;;;;5016616;28;20409;-73
2022/11/17 10:24:35;;;;;;;6.70;1.40;;;13.60;40.10;;;;;;5018204;28;20396;-73
2022/11/17 10:27:03;;;;;;;3.88;1.50;;;13.70;39.90;;;;;;5018016;28;20866;-74
2022/11/17 10:29:30;;;;;;;3.55;1.38;;;13.70;40.40;;;;;;5026747;28;20479;-72
2022/11/17 10:31:56;;;;;;;4.07;1.98;;;13.70;38.80;;;;;;5028239;28;20380;-74
2022/11/17 10:34:37;;;;;;;5.20;1.70;;;13.70;39.80;;;;;;5018040;28;20483;-74
2022/11/17 10:37:04;;;;;;;3.15;1.30;;;13.90;39.50;;;;;;5027628;28;20389;-73
2022/11/17 10:39:32;;;;;;;3.17;1.40;;;13.80;38.70;;;;;;5027488;28;20420;-74
2022/11/17 10:42:01;;;;;;;4.85;1.40;;;13.90;39.60;;;;;;5018415;28;20408;-73
2022/11/17 10:44:30;;;;;;;2.70;1.50;;;13.90;38.60;;;;;;5017539;28;20404;-72
2022/11/17 10:47:06;;;;;;;2.40;1.20;;;13.90;39.40;;;;;;5016960;28;20403;-74
2022/11/17 10:49:38;;;;;;;3.60;1.20;;;13.90;38.30;;;;;;4997306;28;20419;-75
2022/11/17 10:52:10;;;;;;;6.72;1.60;;;13.90;37.60;;;;;;4994845;28;20421;-73
2022/11/17 10:54:36;;;;;;;4.53;1.52;;;13.90;38.40;;;;;;4993613;28;20474;-74
2022/11/17 10:57:08;;;;;;;2.33;1.20;;;14.00;38.90;;;;;;5011521;28;20487;-73
2022/11/17 10:59:49;;;;;;;4.20;1.30;;;14.00;38.70;;;;;;5012459;28;20493;-74
2022/11/17 11:02:34;;;;;;;4.90;1.80;;;13.90;39.40;;;;;;5011993;28;20400;-72
2022/11/17 11:05:15;;;;;;;2.95;1.70;;;13.90;38.80;;;;;;5012658;28;20395;-73
2022/11/17 11:07:41;;;;;;;5.10;2.70;;;14.00;39.40;;;;;;5012054;28;20491;-73
2022/11/17 11:10:15;;;;;;;4.20;1.60;;;14.10;39.90;;;;;;5012070;28;20416;-73
2022/11/17 11:12:58;;;;;;;4.07;1.63;;;14.40;38.20;;;;;;5011826;28;20384;-72
2022/11/17 11:15:26;;;;;;;3.20;1.30;;;14.60;36.50;;;;;;5012875;28;20396;-74
2022/11/17 11:17:52;;;;;;;4.55;1.42;;;14.90;35.30;;;;;;5006638;28;20421;-72
2022/11/17 11:20:22;;;;;;;3.50;1.63;;;14.90;35.10;;;;;;5006579;28;20490;-73
2022/11/17 11:23:13;;;;;;;3.67;1.60;;;14.80;35.60;;;;;;5011299;28;20416;-73
2022/11/17 11:25:48;;;;;;;2.85;1.30;;;14.80;33.70;;;;;;5015984;28;20459;-74
2022/11/17 11:28:28;;;;;;;5.20;1.80;;;14.70;34.60;;;;;;5011596;28;20485;-72
2022/11/17 11:31:07;;;;;;;3.28;1.40;;;14.70;35.10;;;;;;5009463;28;20817;-74
2022/11/17 11:33:44;;;;;;;4.55;1.80;;;14.80;34.90;;;;;;5009781;28;20388;-72
2022/11/17 11:36:35;;;;;;;2.92;1.52;;;14.70;35.50;;;;;;5007863;28;20380;-74
2022/11/17 11:39:27;;;;;;;4.05;1.20;;;14.50;34.90;;;;;;5009576;28;20385;-72
2022/11/17 11:42:23;;;;;;;6.75;2.40;;;14.30;34.60;;;;;;5009396;28;20401;-74
2022/11/17 11:45:00;;;;;;;2.83;1.55;;;14.10;36.30;;;;;;5010174;28;20384;-73
2022/11/17 11:47:52;;;;;;;11.80;5.35;;;13.90;37.40;;;;;;5008833;28;20904;-73
2022/11/17 11:50:24;;;;;;;13.05;4.07;;;13.90;38.50;;;;;;5012010;28;20409;-73
2022/11/17 11:52:59;;;;;;;7.67;2.57;;;14.00;38.90;;;;;;5012527;28;20703;-74
2022/11/17 11:55:35;;;;;;;7.32;2.63;;;14.00;39.10;;;;;;5020845;28;20394;-71
2022/11/17 11:58:17;;;;;;;4.05;1.77;;;14.00;37.80;;;;;;5020687;28;20615;-71
2022/11/17 12:00:45;;;;;;;5.00;2.00;;;14.10;37.40;;;;;;5021001;28;20645;-72
2022/11/17 12:03:27;;;;;;;3.15;1.70;;;14.20;37.20;;;;;;5014058;28;20425;-72
2022/11/17 12:06:39;;;;;;;7.43;1.57;;;14.20;36.70;;;;;;5012342;28;20397;-74
2022/11/17 12:09:15;;;;;;;7.90;2.00;;;14.30;35.80;;;;;;5011489;28;20389;-74
2022/11/17 12:12:00;;;;;;;8.90;2.13;;;14.40;35.90;;;;;;5010247;28;20844;-72
2022/11/17 12:14:34;;;;;;;5.60;1.60;;;14.40;36.00;;;;;;5015513;28;20393;-74
2022/11/17 12:17:16;;;;;;;5.45;1.65;;;14.30;36.30;;;;;;5037620;28;20466;-72
2022/11/17 12:19:56;;;;;;;3.85;1.60;;;14.20;36.70;;;;;;5017789;28;20397;-72
2022/11/17 12:22:31;;;;;;;7.40;2.45;;;14.20;36.00;;;;;;5016667;28;20830;-74
2022/11/17 12:25:04;;;;;;;4.78;1.48;;;14.20;34.80;;;;;;5017361;28;20385;-74
2022/11/17 12:27:53;;;;;;;15.38;2.80;;;14.20;35.60;;;;;;5017638;28;20769;-73
2022/11/17 12:30:44;;;;;;;18.03;2.60;;;14.00;36.40;;;;;;5019096;28;20857;-73
2022/11/17 12:33:09;;;;;;;9.52;1.85;;;13.90;36.50;;;;;;5014761;28;20473;-73
2022/11/17 12:35:39;;;;;;;5.13;1.80;;;13.80;36.70;;;;;;5013984;28;20505;-71
2022/11/17 12:38:14;;;;;;;4.20;1.65;;;13.90;36.70;;;;;;5016522;28;20805;-73
2022/11/17 12:40:50;;;;;;;5.20;1.80;;;13.90;34.80;;;;;;5034673;28;20402;-72
2022/11/17 12:43:23;;;;;;;5.97;1.55;;;13.80;36.20;;;;;;5033048;28;20389;-73
2022/11/17 12:46:10;;;;;;;8.20;2.60;;;13.70;36.50;;;;;;5015066;28;20417;-74
2022/11/17 12:48:38;;;;;;;6.75;2.03;;;13.60;36.80;;;;;;5014765;28;20451;-72
2022/11/17 12:51:37;;;;;;;7.35;1.73;;;13.60;36.40;;;;;;5017701;28;20499;-72
2022/11/17 12:54:22;;;;;;;4.60;1.60;;;13.70;35.00;;;;;;5032425;28;20387;-75
2022/11/17 12:57:09;;;;;;;8.18;1.70;;;13.70;35.60;;;;;;5034628;28;20394;-73
2022/11/17 12:59:45;;;;;;;7.77;2.00;;;13.80;35.40;;;;;;5034535;28;20414;-73
2022/11/17 13:02:36;;;;;;;7.15;2.90;;;13.90;35.40;;;;;;5033021;28;20387;-73
2022/11/17 13:05:14;;;;;;;6.32;1.70;;;14.10;35.00;;;;;;5035430;28;20391;-73
2022/11/17 13:07:40;;;;;;;6.82;3.10;;;13.90;34.30;;;;;;5034768;28;20442;-70
2022/11/17 13:10:20;;;;;;;9.20;2.00;;;14.00;34.50;;;;;;5018914;28;20468;-72
2022/11/17 13:12:46;;;;;;;4.68;1.70;;;14.10;33.90;;;;;;5014829;28;20395;-73
2022/11/17 13:15:21;;;;;;;9.23;2.30;;;14.00;33.60;;;;;;5014837;28;20468;-73
2022/11/17 13:17:47;;;;;;;8.40;2.30;;;14.00;33.50;;;;;;5014045;28;20388;-74
2022/11/17 13:20:27;;;;;;;6.63;2.57;;;14.00;33.60;;;;;;5013836;28;20389;-72
2022/11/17 13:23:08;;;;;;;6.00;1.95;;;14.10;33.60;;;;;;5013940;28;20464;-73
2022/11/17 13:25:34;;;;;;;4.73;1.80;;;14.00;33.10;;;;;;5013355;28;20412;-71
2022/11/17 13:27:59;;;;;;;10.15;1.92;;;14.10;32.80;;;;;;5014373;28;20385;-73
2022/11/17 13:30:27;;;;;;;6.77;2.40;;;14.20;33.30;;;;;;5013934;28;20409;-72